createdAt,value
2018-08-23T00:00:19.227Z,72.22
2018-08-23T00:01:19.251Z,72.13
2018-08-23T00:02:19.283Z,71.94
2018-08-23T00:03:19.301Z,71.94
2018-08-23T00:04:19.325Z,72.03
2018-08-23T00:05:19.350Z,72.13
2018-08-23T00:06:19.380Z,71.94
2018-08-23T00:07:19.400Z,72.03
2018-08-23T00:08:19.433Z,72.03
2018-08-23T00:09:19.448Z,71.94
2018-08-23T00:10:19.503Z,72.61
2018-08-23T00:11:19.500Z,72.22
2018-08-23T00:12:19.523Z,72.22
2018-08-23T00:13:19.549Z,72.32
2018-08-23T00:14:19.573Z,72.61
2018-08-23T00:15:19.597Z,72.71
2018-08-23T00:16:19.620Z,72.42
2018-08-23T00:17:19.648Z,72.42
2018-08-23T00:18:19.668Z,72.32
2018-08-23T00:19:19.695Z,72.52
2018-08-23T00:20:19.719Z,72.52
2018-08-23T00:21:19.745Z,73.09
2018-08-23T00:22:19.768Z,72.42
2018-08-23T00:23:19.793Z,72.80
2018-08-23T00:24:19.818Z,72.80
2018-08-23T00:25:19.842Z,72.90
2018-08-23T00:26:19.866Z,72.90
2018-08-23T00:27:19.893Z,72.90
2018-08-23T00:28:19.916Z,72.71
2018-08-23T00:29:19.939Z,72.80
2018-08-23T00:30:19.965Z,73.00
2018-08-23T00:31:19.992Z,72.90
2018-08-23T00:32:20.014Z,73.00
2018-08-23T00:33:20.041Z,73.00
2018-08-23T00:34:20.064Z,73.09
2018-08-23T00:35:20.087Z,72.90
2018-08-23T00:36:20.112Z,72.90
2018-08-23T00:37:20.140Z,73.48
2018-08-23T00:38:20.163Z,73.48
2018-08-23T00:39:20.187Z,72.90
2018-08-23T00:40:20.210Z,73.48
2018-08-23T00:41:20.234Z,73.28
2018-08-23T00:42:20.259Z,73.38
2018-08-23T00:43:20.285Z,73.19
2018-08-23T00:44:20.310Z,73.09
2018-08-23T00:45:20.333Z,73.19
2018-08-23T00:46:20.361Z,73.00
2018-08-23T00:47:20.381Z,73.19
2018-08-23T00:48:20.407Z,73.19
2018-08-23T00:49:20.434Z,73.28
2018-08-23T00:50:20.456Z,73.09
2018-08-23T00:51:20.483Z,73.28
2018-08-23T00:52:20.506Z,73.38
2018-08-23T00:53:20.536Z,73.28
2018-08-23T00:54:20.591Z,73.86
2018-08-23T00:55:20.580Z,73.58
2018-08-23T00:56:20.603Z,73.58
2018-08-23T00:57:20.628Z,73.38
2018-08-23T00:58:20.653Z,73.58
2018-08-23T00:59:20.678Z,73.09
2018-08-23T01:00:20.698Z,73.19
2018-08-23T01:01:20.728Z,73.58
2018-08-23T01:02:20.755Z,73.77
2018-08-23T01:03:20.775Z,73.58
2018-08-23T01:04:20.801Z,73.77
2018-08-23T01:05:20.824Z,73.67
2018-08-23T01:06:20.849Z,73.48
2018-08-23T01:07:20.874Z,73.58
2018-08-23T01:08:20.898Z,73.67
2018-08-23T01:09:20.922Z,73.67
2018-08-23T01:10:20.950Z,73.77
2018-08-23T01:11:20.970Z,73.67
2018-08-23T01:12:20.994Z,73.48
2018-08-23T01:13:21.022Z,74.54
2018-08-23T01:14:21.045Z,74.06
2018-08-23T01:15:21.070Z,74.16
2018-08-23T01:16:21.094Z,74.16
2018-08-23T01:17:21.118Z,74.06
2018-08-23T01:18:21.149Z,74.35
2018-08-23T01:19:21.170Z,74.25
2018-08-23T01:20:21.191Z,74.16
2018-08-23T01:21:21.220Z,74.16
2018-08-23T01:22:21.250Z,74.16
2018-08-23T01:23:21.269Z,74.16
2018-08-23T01:24:21.291Z,74.64
2018-08-23T01:25:21.316Z,74.54
2018-08-23T01:26:21.339Z,74.44
2018-08-23T01:27:21.364Z,74.64
2018-08-23T01:28:21.388Z,74.64
2018-08-23T01:29:21.412Z,74.44
2018-08-23T01:30:21.439Z,74.35
2018-08-23T01:31:21.462Z,74.64
2018-08-23T01:32:21.487Z,74.35
2018-08-23T01:33:21.516Z,75.02
2018-08-23T01:34:21.558Z,75.12
2018-08-23T01:35:21.562Z,75.02
2018-08-23T01:36:21.586Z,74.93
2018-08-23T01:37:21.611Z,75.02
2018-08-23T01:38:21.633Z,74.64
2018-08-23T01:39:21.658Z,74.93
2018-08-23T01:40:21.682Z,74.73
2018-08-23T01:41:21.706Z,75.12
2018-08-23T01:42:21.731Z,74.73
2018-08-23T01:43:21.756Z,74.93
2018-08-23T01:44:21.784Z,75.22
2018-08-23T01:45:21.805Z,74.64
2018-08-23T01:46:21.829Z,75.31
2018-08-23T01:47:21.854Z,75.51
2018-08-23T01:48:21.882Z,75.51
2018-08-23T01:49:21.903Z,75.41
2018-08-23T01:50:21.930Z,75.31
2018-08-23T01:51:21.953Z,75.22
2018-08-23T01:52:21.977Z,75.31
2018-08-23T01:53:22.002Z,75.27
2018-08-23T01:54:22.026Z,75.51
2018-08-23T01:55:22.055Z,75.51
2018-08-23T01:56:22.075Z,75.51
2018-08-23T01:57:22.091Z,75.51
2018-08-23T01:58:22.123Z,75.51
2018-08-23T01:59:22.148Z,75.31
2018-08-23T02:00:22.172Z,75.51
2018-08-23T02:01:22.198Z,75.41
2018-08-23T02:02:22.223Z,75.09
2018-08-23T02:03:22.247Z,75.09
2018-08-23T02:04:22.269Z,74.73
2018-08-23T02:05:22.298Z,75.09
2018-08-23T02:06:22.320Z,75.22
2018-08-23T02:07:22.344Z,75.22
2018-08-23T02:08:22.369Z,75.09
2018-08-23T02:09:22.391Z,75.27
2018-08-23T02:10:22.418Z,75.27
2018-08-23T02:11:22.442Z,74.99
2018-08-23T02:12:22.470Z,75.31
2018-08-23T02:13:22.491Z,75.09
2018-08-23T02:14:22.518Z,75.18
2018-08-23T02:15:22.540Z,75.18
2018-08-23T02:16:22.563Z,75.12
2018-08-23T02:17:22.589Z,75.70
2018-08-23T02:18:22.616Z,75.51
2018-08-23T02:19:22.640Z,75.02
2018-08-23T02:20:22.661Z,75.31
2018-08-23T02:21:22.687Z,75.18
2018-08-23T02:22:22.712Z,75.09
2018-08-23T02:23:22.735Z,75.47
2018-08-23T02:24:22.760Z,74.99
2018-08-23T02:25:22.784Z,75.02
2018-08-23T02:26:22.808Z,74.89
2018-08-23T02:27:22.836Z,74.89
2018-08-23T02:28:22.856Z,75.09
2018-08-23T02:29:22.881Z,75.09
2018-08-23T02:30:22.907Z,75.09
2018-08-23T02:31:22.936Z,75.18
2018-08-23T02:32:22.954Z,75.18
2018-08-23T02:33:22.982Z,75.51
2018-08-23T02:34:23.004Z,75.37
2018-08-23T02:35:23.030Z,75.31
2018-08-23T02:36:23.054Z,75.27
2018-08-23T02:37:23.082Z,75.47
2018-08-23T02:38:23.104Z,75.27
2018-08-23T02:39:23.129Z,75.47
2018-08-23T02:40:23.154Z,75.27
2018-08-23T02:41:23.180Z,74.99
2018-08-23T02:42:23.201Z,75.27
2018-08-23T02:43:23.228Z,74.99
2018-08-23T02:44:23.249Z,75.18
2018-08-23T02:45:23.273Z,75.27
2018-08-23T02:46:23.302Z,75.37
2018-08-23T02:47:23.323Z,75.37
2018-08-23T02:48:23.348Z,75.31
2018-08-23T02:49:23.372Z,75.37
2018-08-23T02:50:23.397Z,75.27
2018-08-23T02:51:23.420Z,75.18
2018-08-23T02:52:23.444Z,75.22
2018-08-23T02:53:23.469Z,75.27
2018-08-23T02:54:23.494Z,75.18
2018-08-23T02:55:23.518Z,75.27
2018-08-23T02:56:23.542Z,75.27
2018-08-23T02:57:23.567Z,75.27
2018-08-23T02:58:23.592Z,75.47
2018-08-23T02:59:23.617Z,75.37
2018-08-23T03:00:23.649Z,75.27
2018-08-23T03:01:23.666Z,75.37
2018-08-23T03:02:23.692Z,75.27
2018-08-23T03:03:23.712Z,75.47
2018-08-23T03:04:23.737Z,75.09
2018-08-23T03:05:23.763Z,74.99
2018-08-23T03:06:23.787Z,75.09
2018-08-23T03:07:23.815Z,74.99
2018-08-23T03:08:23.837Z,75.47
2018-08-23T03:09:23.862Z,75.67
2018-08-23T03:10:23.885Z,75.57
2018-08-23T03:11:23.909Z,75.47
2018-08-23T03:12:23.933Z,75.95
2018-08-23T03:13:23.959Z,75.85
2018-08-23T03:14:23.982Z,75.85
2018-08-23T03:15:24.009Z,75.76
2018-08-23T03:16:24.032Z,75.67
2018-08-23T03:17:24.055Z,76.15
2018-08-23T03:18:24.081Z,75.95
2018-08-23T03:19:24.107Z,76.15
2018-08-23T03:20:24.135Z,76.24
2018-08-23T03:21:24.153Z,76.15
2018-08-23T03:22:24.178Z,76.72
2018-08-23T03:23:24.202Z,76.82
2018-08-23T03:24:24.228Z,76.53
2018-08-23T03:25:24.250Z,77.11
2018-08-23T03:26:24.275Z,76.92
2018-08-23T03:27:24.299Z,77.11
2018-08-23T03:28:24.324Z,77.69
2018-08-23T03:29:24.347Z,77.30
2018-08-23T03:30:24.381Z,77.21
2018-08-23T03:31:24.397Z,77.50
2018-08-23T03:32:24.430Z,77.59
2018-08-23T03:33:24.445Z,77.55
2018-08-23T03:34:24.469Z,78.17
2018-08-23T03:35:24.493Z,78.13
2018-08-23T03:36:24.517Z,78.03
2018-08-23T03:37:24.543Z,78.46
2018-08-23T03:38:24.567Z,78.27
2018-08-23T03:39:24.591Z,78.46
2018-08-23T03:40:24.615Z,78.27
2018-08-23T03:41:24.638Z,79.00
2018-08-23T03:42:24.663Z,78.85
2018-08-23T03:43:24.687Z,78.91
2018-08-23T03:44:24.711Z,79.00
2018-08-23T03:45:24.736Z,79.00
2018-08-23T03:46:24.760Z,78.91
2018-08-23T03:47:24.784Z,79.00
2018-08-23T03:48:24.807Z,79.29
2018-08-23T03:49:24.834Z,79.19
2018-08-23T03:50:24.859Z,79.39
2018-08-23T03:51:24.883Z,79.39
2018-08-23T03:52:24.913Z,79.52
2018-08-23T03:53:24.932Z,79.49
2018-08-23T03:54:24.955Z,79.39
2018-08-23T03:55:24.980Z,79.39
2018-08-23T03:56:25.002Z,79.49
2018-08-23T03:57:25.026Z,79.77
2018-08-23T03:58:25.051Z,79.19
2018-08-23T03:59:25.079Z,79.58
2018-08-23T04:00:25.100Z,79.29
2018-08-23T04:01:25.122Z,79.39
2018-08-23T04:02:25.152Z,79.10
2018-08-23T04:03:25.172Z,79.77
2018-08-23T04:04:25.195Z,79.19
2018-08-23T04:05:25.220Z,79.19
2018-08-23T04:06:25.244Z,79.39
2018-08-23T04:07:25.269Z,79.77
2018-08-23T04:08:25.292Z,79.39
2018-08-23T04:09:25.316Z,79.77
2018-08-23T04:10:25.340Z,79.39
2018-08-23T04:11:25.367Z,79.49
2018-08-23T04:12:25.387Z,79.58
2018-08-23T04:13:25.417Z,79.49
2018-08-23T04:14:25.438Z,79.58
2018-08-23T04:15:25.535Z,79.58
2018-08-23T04:16:25.485Z,79.19
2018-08-23T04:17:25.507Z,79.39
2018-08-23T04:18:25.533Z,79.39
2018-08-23T04:19:25.559Z,79.39
2018-08-23T04:20:25.582Z,79.49
2018-08-23T04:21:25.606Z,79.49
2018-08-23T04:22:25.629Z,79.49
2018-08-23T04:23:25.656Z,79.87
2018-08-23T04:24:25.683Z,79.68
2018-08-23T04:25:25.702Z,79.68
2018-08-23T04:26:25.730Z,79.68
2018-08-23T04:27:25.750Z,79.97
2018-08-23T04:28:25.776Z,79.58
2018-08-23T04:29:25.798Z,79.87
2018-08-23T04:30:25.822Z,79.77
2018-08-23T04:31:25.846Z,79.68
2018-08-23T04:32:25.874Z,79.49
2018-08-23T04:33:25.916Z,79.68
2018-08-23T04:34:25.930Z,79.49
2018-08-23T04:35:25.944Z,79.68
2018-08-23T04:36:25.966Z,79.29
2018-08-23T04:37:25.990Z,79.58
2018-08-23T04:38:26.015Z,79.68
2018-08-23T04:39:26.039Z,79.58
2018-08-23T04:40:26.063Z,79.77
2018-08-23T04:41:26.090Z,79.58
2018-08-23T04:42:26.112Z,79.58
2018-08-23T04:43:26.138Z,79.58
2018-08-23T04:44:26.159Z,79.68
2018-08-23T04:45:26.188Z,79.39
2018-08-23T04:46:26.211Z,79.19
2018-08-23T04:47:26.233Z,79.58
2018-08-23T04:48:26.255Z,79.58
2018-08-23T04:49:26.280Z,79.19
2018-08-23T04:50:26.304Z,79.19
2018-08-23T04:51:26.333Z,79.29
2018-08-23T04:52:26.353Z,79.29
2018-08-23T04:53:26.376Z,79.00
2018-08-23T04:54:26.403Z,79.29
2018-08-23T04:55:26.427Z,78.91
2018-08-23T04:56:26.448Z,78.71
2018-08-23T04:57:26.472Z,78.71
2018-08-23T04:58:26.498Z,78.91
2018-08-23T04:59:26.522Z,78.81
2018-08-23T05:00:26.544Z,79.00
2018-08-23T05:01:26.573Z,78.91
2018-08-23T05:02:26.596Z,79.19
2018-08-23T05:03:26.621Z,79.00
2018-08-23T05:04:26.643Z,78.91
2018-08-23T05:05:26.683Z,78.81
2018-08-23T05:06:26.690Z,79.00
2018-08-23T05:07:26.714Z,78.71
2018-08-23T05:08:26.737Z,78.71
2018-08-23T05:09:26.763Z,78.61
2018-08-23T05:10:26.789Z,78.33
2018-08-23T05:11:26.808Z,78.42
2018-08-23T05:12:26.837Z,78.33
2018-08-23T05:13:26.860Z,78.03
2018-08-23T05:14:26.881Z,78.52
2018-08-23T05:15:26.916Z,78.23
2018-08-23T05:16:26.929Z,78.42
2018-08-23T05:17:26.954Z,78.23
2018-08-23T05:18:26.978Z,78.23
2018-08-23T05:19:27.001Z,78.33
2018-08-23T05:20:27.028Z,78.42
2018-08-23T05:21:27.049Z,78.13
2018-08-23T05:22:27.079Z,78.03
2018-08-23T05:23:27.100Z,78.13
2018-08-23T05:24:27.121Z,78.13
2018-08-23T05:25:27.146Z,78.42
2018-08-23T05:26:27.170Z,78.13
2018-08-23T05:27:27.194Z,78.13
2018-08-23T05:28:27.221Z,78.33
2018-08-23T05:29:27.244Z,78.33
2018-08-23T05:30:27.267Z,78.03
2018-08-23T05:31:27.289Z,78.13
2018-08-23T05:32:27.313Z,78.23
2018-08-23T05:33:27.338Z,78.52
2018-08-23T05:34:27.361Z,78.61
2018-08-23T05:35:27.387Z,78.42
2018-08-23T05:36:27.411Z,78.33
2018-08-23T05:37:27.433Z,78.42
2018-08-23T05:38:27.456Z,78.23
2018-08-23T05:39:27.482Z,78.23
2018-08-23T05:40:27.505Z,78.23
2018-08-23T05:41:27.529Z,78.03
2018-08-23T05:42:27.555Z,77.84
2018-08-23T05:43:27.580Z,78.03
2018-08-23T05:44:27.638Z,78.13
2018-08-23T05:45:27.629Z,77.75
2018-08-23T05:46:27.651Z,78.03
2018-08-23T05:47:27.673Z,78.03
2018-08-23T05:48:27.699Z,77.94
2018-08-23T05:49:27.724Z,78.03
2018-08-23T05:50:27.746Z,78.13
2018-08-23T05:51:27.771Z,77.84
2018-08-23T05:52:27.793Z,78.13
2018-08-23T05:53:27.817Z,78.03
2018-08-23T05:54:27.842Z,77.94
2018-08-23T05:55:27.867Z,77.36
2018-08-23T05:56:27.889Z,77.69
2018-08-23T05:57:27.914Z,77.98
2018-08-23T05:58:27.938Z,78.36
2018-08-23T05:59:27.965Z,78.36
2018-08-23T06:00:27.991Z,78.46
2018-08-23T06:01:28.012Z,78.81
2018-08-23T06:02:28.037Z,79.04
2018-08-23T06:03:28.059Z,78.33
2018-08-23T06:04:28.082Z,78.33
2018-08-23T06:05:28.107Z,78.66
2018-08-23T06:06:28.130Z,78.46
2018-08-23T06:07:28.155Z,77.98
2018-08-23T06:08:28.183Z,77.98
2018-08-23T06:09:28.203Z,77.59
2018-08-23T06:10:28.228Z,77.78
2018-08-23T06:11:28.254Z,76.82
2018-08-23T06:12:28.277Z,77.01
2018-08-23T06:13:28.299Z,77.21
2018-08-23T06:14:28.326Z,76.72
2018-08-23T06:15:28.352Z,76.82
2018-08-23T06:16:28.370Z,76.95
2018-08-23T06:17:28.396Z,77.63
2018-08-23T06:18:28.424Z,77.34
2018-08-23T06:19:28.447Z,77.53
2018-08-23T06:20:28.469Z,77.63
2018-08-23T06:21:28.494Z,77.73
2018-08-23T06:22:28.517Z,77.83
2018-08-23T06:23:28.543Z,77.25
2018-08-23T06:24:28.570Z,77.63
2018-08-23T06:25:28.594Z,76.76
2018-08-23T06:26:28.619Z,77.15
2018-08-23T06:27:28.670Z,76.57
2018-08-23T06:28:28.674Z,76.42
2018-08-23T06:29:28.690Z,76.32
2018-08-23T06:30:28.715Z,76.03
2018-08-23T06:31:28.747Z,75.84
2018-08-23T06:32:28.761Z,75.54
2018-08-23T06:33:28.987Z,75.35
2018-08-23T06:34:28.817Z,75.26
2018-08-23T06:35:28.853Z,75.45
2018-08-23T06:36:28.862Z,75.26
2018-08-23T06:37:28.916Z,75.29
2018-08-23T06:38:28.911Z,75.68
2018-08-23T06:39:28.937Z,75.10
2018-08-23T06:40:28.960Z,74.23
2018-08-23T06:41:28.984Z,74.04
2018-08-23T06:42:29.011Z,74.04
2018-08-23T06:43:29.034Z,74.13
2018-08-23T06:44:29.098Z,74.13
2018-08-23T06:45:29.082Z,74.04
2018-08-23T06:46:29.109Z,74.32
2018-08-23T06:47:29.141Z,74.13
2018-08-23T06:48:29.156Z,74.62
2018-08-23T06:49:29.183Z,74.13
2018-08-23T06:50:29.205Z,74.42
2018-08-23T06:51:29.232Z,75.20
2018-08-23T06:52:29.256Z,76.03
2018-08-23T06:53:29.277Z,77.09
2018-08-23T06:54:29.304Z,78.06
2018-08-23T06:55:29.328Z,79.08
2018-08-23T06:56:29.351Z,78.79
2018-08-23T06:57:29.379Z,78.99
2018-08-23T06:58:29.421Z,79.27
2018-08-23T06:59:29.432Z,79.47
2018-08-23T07:00:29.450Z,79.85
2018-08-23T07:01:29.500Z,79.85
2018-08-23T07:02:29.504Z,80.14
2018-08-23T07:03:29.529Z,79.66
2018-08-23T07:04:29.555Z,79.56
2018-08-23T07:05:29.640Z,79.56
2018-08-23T07:06:29.604Z,78.79
2018-08-23T07:07:29.628Z,79.12
2018-08-23T07:08:29.653Z,78.54
2018-08-23T07:09:29.676Z,79.12
2018-08-23T07:10:29.731Z,79.27
2018-08-23T07:11:29.729Z,79.47
2018-08-23T07:12:29.748Z,79.95
2018-08-23T07:13:29.775Z,80.14
2018-08-23T07:14:29.803Z,79.85
2018-08-23T07:15:29.826Z,79.66
2018-08-23T07:16:29.845Z,79.27
2018-08-23T07:17:29.938Z,79.27
2018-08-23T07:18:29.899Z,79.66
2018-08-23T07:19:29.925Z,80.14
2018-08-23T07:20:29.948Z,80.43
2018-08-23T07:21:29.978Z,80.05
2018-08-23T07:22:30.044Z,79.75
2018-08-23T07:23:30.026Z,80.14
2018-08-23T07:24:30.048Z,79.47
2018-08-23T07:25:30.083Z,79.75
2018-08-23T07:26:30.095Z,79.17
2018-08-23T07:27:30.120Z,79.17
2018-08-23T07:28:30.148Z,78.99
2018-08-23T07:29:30.171Z,79.17
2018-08-23T07:30:30.202Z,79.17
2018-08-23T07:31:30.275Z,78.41
2018-08-23T07:32:30.244Z,79.27
2018-08-23T07:33:30.270Z,78.44
2018-08-23T07:34:30.293Z,78.21
2018-08-23T07:35:30.318Z,78.15
2018-08-23T07:36:30.344Z,77.48
2018-08-23T07:37:30.367Z,77.67
2018-08-23T07:38:30.890Z,77.96
2018-08-23T07:39:30.418Z,77.57
2018-08-23T07:40:30.441Z,77.28
2018-08-23T07:41:30.465Z,77.19
2018-08-23T07:42:30.488Z,77.28
2018-08-23T07:43:30.518Z,77.09
2018-08-23T07:44:30.543Z,76.70
2018-08-23T07:45:30.570Z,77.00
2018-08-23T07:46:30.603Z,77.09
2018-08-23T07:47:30.618Z,76.61
2018-08-23T07:48:30.694Z,76.61
2018-08-23T07:49:30.664Z,78.34
2018-08-23T07:50:30.695Z,78.64
2018-08-23T07:51:30.726Z,77.48
2018-08-23T07:52:30.823Z,78.06
2018-08-23T07:53:30.944Z,77.86
2018-08-23T07:54:30.790Z,76.80
2018-08-23T07:55:30.831Z,77.22
2018-08-23T07:56:30.839Z,77.32
2018-08-23T07:57:30.869Z,76.64
2018-08-23T07:58:30.895Z,76.64
2018-08-23T07:59:30.915Z,76.64
2018-08-23T08:00:30.938Z,77.71
2018-08-23T08:01:30.966Z,77.22
2018-08-23T08:02:30.988Z,76.74
2018-08-23T08:03:31.011Z,76.84
2018-08-23T08:04:31.048Z,77.13
2018-08-23T08:05:31.060Z,77.42
2018-08-23T08:06:31.423Z,77.03
2018-08-23T08:07:31.117Z,76.84
2018-08-23T08:08:31.139Z,76.55
2018-08-23T08:09:31.186Z,77.32
2018-08-23T08:10:31.190Z,77.42
2018-08-23T08:11:31.214Z,76.93
2018-08-23T08:12:31.239Z,76.93
2018-08-23T08:13:31.264Z,77.32
2018-08-23T08:14:31.294Z,77.03
2018-08-23T08:15:31.320Z,78.09
2018-08-23T08:16:31.340Z,78.19
2018-08-23T08:17:31.369Z,77.61
2018-08-23T08:18:31.388Z,77.42
2018-08-23T08:19:31.412Z,77.80
2018-08-23T08:20:31.442Z,77.90
2018-08-23T08:21:31.475Z,77.90
2018-08-23T08:22:31.482Z,77.32
2018-08-23T08:23:31.517Z,77.65
2018-08-23T08:24:31.537Z,77.03
2018-08-23T08:25:31.565Z,77.32
2018-08-23T08:26:31.597Z,76.97
2018-08-23T08:27:31.617Z,76.64
2018-08-23T08:28:31.649Z,76.29
2018-08-23T08:29:31.668Z,76.39
2018-08-23T08:30:31.692Z,75.71
2018-08-23T08:31:31.715Z,75.91
2018-08-23T08:32:31.742Z,75.62
2018-08-23T08:33:31.767Z,75.81
2018-08-23T08:34:31.792Z,75.43
2018-08-23T08:35:31.819Z,74.85
2018-08-23T08:36:31.851Z,75.27
2018-08-23T08:37:31.874Z,74.85
2018-08-23T08:38:31.888Z,74.98
2018-08-23T08:39:31.919Z,74.59
2018-08-23T08:40:31.947Z,74.49
2018-08-23T08:41:31.969Z,74.88
2018-08-23T08:42:31.988Z,74.40
2018-08-23T08:43:32.020Z,74.79
2018-08-23T08:44:32.054Z,74.21
2018-08-23T08:45:32.075Z,74.30
2018-08-23T08:46:32.096Z,75.17
2018-08-23T08:47:32.132Z,74.21
2018-08-23T08:48:32.160Z,74.49
2018-08-23T08:49:32.175Z,74.11
2018-08-23T08:50:32.290Z,73.72
2018-08-23T08:51:32.219Z,74.01
2018-08-23T08:52:32.253Z,73.72
2018-08-23T08:53:32.308Z,74.01
2018-08-23T08:54:32.490Z,73.82
2018-08-23T08:55:32.559Z,73.72
2018-08-23T08:56:32.376Z,74.21
2018-08-23T08:57:32.388Z,74.59
2018-08-23T08:58:32.394Z,74.21
2018-08-23T08:59:32.424Z,74.30
2018-08-23T09:00:32.449Z,74.40
2018-08-23T09:01:32.470Z,74.59
2018-08-23T09:02:32.504Z,74.98
2018-08-23T09:03:32.527Z,75.07
2018-08-23T09:04:32.562Z,75.13
2018-08-23T09:05:32.579Z,75.27
2018-08-23T09:06:32.609Z,74.46
2018-08-23T09:07:32.631Z,74.49
2018-08-23T09:08:32.660Z,74.49
2018-08-23T09:09:32.680Z,74.21
2018-08-23T09:10:32.709Z,73.82
2018-08-23T09:11:32.737Z,74.01
2018-08-23T09:12:32.760Z,73.72
2018-08-23T09:13:32.790Z,73.63
2018-08-23T09:14:32.811Z,73.82
2018-08-23T09:15:32.838Z,73.82
2018-08-23T09:16:32.862Z,73.91
2018-08-23T09:17:32.891Z,73.63
2018-08-23T09:18:32.932Z,73.33
2018-08-23T09:19:32.940Z,73.37
2018-08-23T09:20:33.064Z,72.89
2018-08-23T09:21:32.995Z,72.69
2018-08-23T09:22:33.027Z,72.89
2018-08-23T09:23:33.051Z,72.21
2018-08-23T09:24:33.077Z,72.30
2018-08-23T09:25:33.100Z,72.89
2018-08-23T09:26:33.120Z,72.40
2018-08-23T09:27:33.146Z,72.50
2018-08-23T09:28:33.171Z,73.04
2018-08-23T09:29:33.197Z,73.04
2018-08-23T09:30:33.223Z,72.89
2018-08-23T09:31:33.247Z,73.14
2018-08-23T09:32:33.275Z,73.04
2018-08-23T09:33:33.300Z,73.33
2018-08-23T09:34:33.341Z,72.56
2018-08-23T09:35:33.374Z,72.56
2018-08-23T09:36:33.390Z,72.66
2018-08-23T09:37:33.405Z,72.08
2018-08-23T09:38:33.432Z,72.66
2018-08-23T09:39:33.458Z,72.75
2018-08-23T09:40:33.485Z,71.88
2018-08-23T09:41:33.513Z,71.62
2018-08-23T09:42:33.534Z,71.14
2018-08-23T09:43:33.564Z,71.04
2018-08-23T09:44:33.585Z,70.86
2018-08-23T09:45:33.606Z,70.50
2018-08-23T09:46:33.638Z,70.79
2018-08-23T09:47:33.666Z,70.31
2018-08-23T09:48:33.914Z,70.40
2018-08-23T09:49:33.712Z,70.50
2018-08-23T09:50:33.749Z,70.11
2018-08-23T09:51:33.768Z,69.82
2018-08-23T09:52:33.794Z,69.63
2018-08-23T09:53:33.827Z,69.73
2018-08-23T09:54:33.842Z,69.43
2018-08-23T09:55:33.886Z,69.73
2018-08-23T09:56:34.513Z,69.73
2018-08-23T09:57:33.922Z,69.24
2018-08-23T09:58:33.948Z,69.34
2018-08-23T09:59:33.969Z,69.43
2018-08-23T10:00:34.011Z,69.34
2018-08-23T10:01:34.026Z,69.53
2018-08-23T10:02:34.074Z,68.85
2018-08-23T10:03:34.077Z,68.76
2018-08-23T10:04:34.159Z,68.76
2018-08-23T10:05:34.145Z,68.76
2018-08-23T10:06:34.157Z,68.85
2018-08-23T10:07:34.209Z,68.85
2018-08-23T10:08:34.221Z,68.85
2018-08-23T10:09:34.232Z,68.95
2018-08-23T10:10:34.286Z,68.85
2018-08-23T10:11:34.374Z,69.24
2018-08-23T10:12:34.311Z,69.05
2018-08-23T10:13:34.361Z,68.95
2018-08-23T10:14:34.372Z,69.05
2018-08-23T10:15:34.387Z,68.76
2018-08-23T10:16:34.438Z,68.95
2018-08-23T10:17:35.954Z,68.56
2018-08-23T10:18:34.490Z,68.47
2018-08-23T10:19:34.499Z,68.66
2018-08-23T10:20:34.557Z,68.66
2018-08-23T10:21:34.570Z,68.56
2018-08-23T10:22:34.561Z,68.37
2018-08-23T10:23:34.625Z,68.66
2018-08-23T10:24:34.689Z,68.18
2018-08-23T10:25:34.648Z,67.98
2018-08-23T10:26:34.764Z,68.18
2018-08-23T10:27:34.705Z,67.88
2018-08-23T10:28:35.482Z,67.79
2018-08-23T10:29:34.771Z,67.79
2018-08-23T10:30:34.787Z,67.88
2018-08-23T10:31:34.827Z,68.18
2018-08-23T10:32:34.841Z,67.98
2018-08-23T10:33:34.859Z,67.98
2018-08-23T10:34:34.888Z,67.98
2018-08-23T10:35:34.909Z,67.98
2018-08-23T10:36:34.935Z,67.79
2018-08-23T10:37:34.961Z,67.60
2018-08-23T10:38:34.992Z,67.69
2018-08-23T10:39:35.016Z,67.69
2018-08-23T10:40:35.037Z,67.60
2018-08-23T10:41:35.071Z,67.11
2018-08-23T10:42:35.127Z,67.30
2018-08-23T10:43:35.113Z,67.40
2018-08-23T10:44:35.230Z,67.30
2018-08-23T10:45:35.165Z,67.11
2018-08-23T10:46:35.197Z,67.21
2018-08-23T10:47:35.226Z,66.72
2018-08-23T10:48:35.242Z,67.21
2018-08-23T10:49:35.271Z,67.02
2018-08-23T10:50:35.324Z,66.43
2018-08-23T10:51:35.334Z,66.63
2018-08-23T10:52:35.352Z,66.43
2018-08-23T10:53:35.449Z,66.43
2018-08-23T10:54:35.402Z,66.43
2018-08-23T10:55:35.429Z,66.14
2018-08-23T10:56:35.455Z,66.14
2018-08-23T10:57:35.486Z,65.85
2018-08-23T10:58:35.508Z,65.75
2018-08-23T10:59:35.534Z,65.66
2018-08-23T11:00:35.563Z,65.37
2018-08-23T11:01:35.582Z,65.47
2018-08-23T11:02:35.612Z,65.17
2018-08-23T11:03:35.639Z,65.08
2018-08-23T11:04:35.664Z,64.59
2018-08-23T11:05:35.682Z,64.50
2018-08-23T11:06:35.704Z,64.98
2018-08-23T11:07:35.736Z,64.79
2018-08-23T11:08:35.764Z,64.82
2018-08-23T11:09:35.799Z,64.72
2018-08-23T11:10:35.816Z,64.59
2018-08-23T11:11:35.872Z,64.72
2018-08-23T11:12:35.881Z,64.43
2018-08-23T11:13:35.907Z,64.24
2018-08-23T11:14:35.944Z,64.34
2018-08-23T11:15:35.957Z,64.34
2018-08-23T11:16:37.552Z,64.40
2018-08-23T11:17:36.018Z,64.40
2018-08-23T11:18:36.024Z,64.24
2018-08-23T11:19:36.089Z,64.53
2018-08-23T11:20:36.076Z,64.62
2018-08-23T11:21:37.005Z,64.24
2018-08-23T11:22:36.130Z,63.95
2018-08-23T11:23:36.168Z,64.14
2018-08-23T11:24:36.216Z,64.04
2018-08-23T11:25:37.003Z,63.75
2018-08-23T11:26:36.240Z,63.85
2018-08-23T11:27:36.286Z,63.75
2018-08-23T11:28:36.284Z,63.85
2018-08-23T11:29:36.329Z,63.75
2018-08-23T11:30:36.364Z,63.95
2018-08-23T11:31:36.370Z,63.56
2018-08-23T11:32:37.398Z,63.85
2018-08-23T11:33:36.429Z,63.65
2018-08-23T11:34:36.444Z,63.85
2018-08-23T11:35:36.502Z,63.46
2018-08-23T11:36:36.499Z,63.43
2018-08-23T11:37:36.524Z,63.17
2018-08-23T11:38:36.556Z,63.46
2018-08-23T11:39:36.580Z,63.46
2018-08-23T11:40:36.597Z,63.17
2018-08-23T11:41:36.628Z,62.88
2018-08-23T11:42:36.658Z,63.07
2018-08-23T11:43:36.682Z,63.17
2018-08-23T11:44:36.706Z,62.49
2018-08-23T11:45:36.736Z,62.30
2018-08-23T11:46:36.766Z,62.10
2018-08-23T11:47:36.800Z,61.52
2018-08-23T11:48:36.813Z,61.62
2018-08-23T11:49:36.845Z,61.33
2018-08-23T11:50:36.888Z,61.14
2018-08-23T11:51:36.890Z,61.04
2018-08-23T11:52:36.923Z,60.33
2018-08-23T11:53:37.204Z,60.72
2018-08-23T11:54:36.984Z,60.43
2018-08-23T11:55:37.012Z,60.07
2018-08-23T11:56:37.049Z,59.94
2018-08-23T11:57:37.086Z,59.88
2018-08-23T11:58:37.079Z,60.07
2018-08-23T11:59:37.110Z,59.94
2018-08-23T12:00:37.123Z,59.88
2018-08-23T12:01:37.155Z,60.04
2018-08-23T12:02:37.185Z,60.14
2018-08-23T12:03:37.209Z,60.88
2018-08-23T12:04:37.227Z,61.08
2018-08-23T12:05:37.261Z,60.78
2018-08-23T12:06:37.478Z,61.18
2018-08-23T12:07:37.310Z,61.95
2018-08-23T12:08:37.350Z,61.18
2018-08-23T12:09:37.361Z,61.08
2018-08-23T12:10:37.412Z,61.18
2018-08-23T12:11:37.423Z,60.78
2018-08-23T12:12:37.437Z,60.52
2018-08-23T12:13:37.470Z,60.72
2018-08-23T12:14:37.493Z,60.11
2018-08-23T12:15:37.549Z,60.98
2018-08-23T12:16:37.544Z,60.50
2018-08-23T12:17:37.567Z,60.59
2018-08-23T12:18:37.596Z,60.82
2018-08-23T12:19:37.624Z,60.78
2018-08-23T12:20:37.645Z,61.08
2018-08-23T12:21:37.674Z,60.69
2018-08-23T12:22:37.703Z,60.78
2018-08-23T12:23:37.728Z,60.98
2018-08-23T12:24:37.761Z,60.69
2018-08-23T12:25:37.803Z,60.88
2018-08-23T12:26:37.825Z,60.69
2018-08-23T12:27:37.831Z,61.27
2018-08-23T12:28:37.861Z,61.01
2018-08-23T12:29:37.899Z,60.52
2018-08-23T12:30:37.930Z,60.14
2018-08-23T12:31:38.007Z,60.88
2018-08-23T12:32:37.983Z,61.08
2018-08-23T12:33:38.012Z,60.98
2018-08-23T12:34:38.034Z,60.52
2018-08-23T12:35:38.044Z,60.91
2018-08-23T12:36:38.082Z,60.62
2018-08-23T12:37:38.157Z,60.82
2018-08-23T12:38:38.119Z,60.46
2018-08-23T12:39:38.146Z,60.43
2018-08-23T12:40:38.187Z,60.33
2018-08-23T12:41:38.204Z,60.14
2018-08-23T12:42:38.248Z,60.43
2018-08-23T12:43:38.272Z,60.43
2018-08-23T12:44:38.330Z,61.01
2018-08-23T12:45:38.298Z,60.52
2018-08-23T12:46:38.326Z,60.43
2018-08-23T12:47:38.357Z,60.91
2018-08-23T12:48:38.380Z,61.40
2018-08-23T12:49:38.439Z,61.40
2018-08-23T12:50:38.433Z,61.59
2018-08-23T12:51:38.461Z,61.40
2018-08-23T12:52:38.493Z,60.91